Terminal Aerodrome Forecast
Issued by NWS Springfield, MO

Home | Current Version | Previous Version | Text Only | Print | Product List | Glossary On
Versions: 1 2 3 4 5 6 7 8 9 10 11 12 13 14 15 16 17 18 19 20 21 22
000
FTUS43 KSGF 281120
TAFSGF
TAF
KSGF 281120Z 2812/2912 35005KT P6SM SCT006
     FM281400 34007KT P6SM BKN008
     FM281500 34006KT P6SM BKN015 BKN035
     FM281700 33007KT P6SM SCT060
     FM290300 26003KT P6SM SKC=

USA.gov is the U.S. government's official web portal to all federal, state and local government web resources and services.